PWSweather.com
Personal Weather Stations
Station Observations
KAZTUCSO57
Countryside Manor, Tucson, AZ 85742

Countryside ManorTucson, AZ 85742

Lat: 32.3692, Lon: -111.066

Elevation: 2307

Station Type: Davis VP Pro+ 6163

http://frogville.us

Latest ConditionsUpdated 6:00:00 PM MST Saturday, Jan 20, 2018
Currently Today's Max Today's Min Today's Average
Temperature 47.3°F8.5°C 68.3°F20.2°C 47.3°F8.5°C 57.9°F14.4°C
Dew Point 40.1°F4.5°C 41.9°F5.5°C 22.5°F-5.3°C 30.1°F-1.1°C
Winds 1.2 mph N1.9 kmh N 5.8 mph WSW9.3 kmh WSW - 1.8 mph 2.9 kmh
Wind Gusts 2.3 mph3.7 kmh 10.4 mph16.7 kmh - -
Humidity 76% 79% 25% 37%
Pressure 29.90 in1012.5 mb 29.90 in1012.5 mb 29.81 in1009.5 mb -
Precipitation - 0.01 in0.3 mm - -
Hour Temp Dew Point Humidity Winds Wind Gusts Pressure Precip Precip Rate Daily Precip Total
06:00 PM 47.3°F8.5°C 40.1°F4.5°C 76% 1.2 mph N1.9 kmh N 2.3 mph3.7 kmh 29.90 in1012.5 mb - 0.00 in0.0 mm 0.01 in0.3 mm
05:50 PM 47.5°F8.6°C 40.6°F4.8°C 77% 1.2 mph NNE1.9 kmh NNE 4.6 mph7.4 kmh 29.89 in1012.2 mb - 0.00 in0.0 mm 0.01 in0.3 mm
05:40 PM 47.6°F8.7°C 41.1°F5.1°C 78% 2.3 mph N3.7 kmh N 3.5 mph5.6 kmh 29.89 in1012.2 mb - 0.00 in0.0 mm 0.01 in0.3 mm
05:30 PM 47.6°F8.7°C 41.1°F5.1°C 78% 3.5 mph N5.6 kmh N 9.2 mph14.8 kmh 29.89 in1012.2 mb - 0.00 in0.0 mm 0.01 in0.3 mm
05:20 PM 47.9°F8.8°C 41.4°F5.2°C 78% 3.5 mph NNE5.6 kmh NNE 5.8 mph9.3 kmh 29.89 in1012.2 mb - 0.00 in0.0 mm 0.01 in0.3 mm
05:10 PM 48.1°F8.9°C 41.9°F5.5°C 79% 3.5 mph NE5.6 kmh NE 3.5 mph5.6 kmh 29.89 in1012.2 mb - 0.00 in0.0 mm 0.01 in0.3 mm
05:00 PM 48.1°F8.9°C 41.6°F5.3°C 78% 3.5 mph NNE5.6 kmh NNE 4.6 mph7.4 kmh 29.88 in1011.9 mb - 0.00 in0.0 mm 0.01 in0.3 mm
04:50 PM 48.2°F9.0°C 41.7°F5.4°C 78% 2.3 mph N3.7 kmh N 4.6 mph7.4 kmh 29.88 in1011.9 mb - 0.00 in0.0 mm 0.01 in0.3 mm
04:40 PM 48.3°F9.1°C 41.4°F5.2°C 77% 2.3 mph NE3.7 kmh NE 4.6 mph7.4 kmh 29.88 in1011.9 mb - 0.00 in0.0 mm 0.01 in0.3 mm
04:30 PM 48.5°F9.2°C 40.9°F4.9°C 75% 1.2 mph N1.9 kmh N 3.5 mph5.6 kmh 29.89 in1012.2 mb - 0.01 in0.3 mm 0.01 in0.3 mm
04:20 PM 48.6°F9.2°C 40.3°F4.6°C 73% Calm Calm 1.2 mph1.9 kmh 29.88 in1011.9 mb - 0.00 in0.0 mm 0.00 in0.0 mm
04:10 PM 48.7°F9.3°C 40.8°F4.9°C 74% 1.2 mph NW1.9 kmh NW 2.3 mph3.7 kmh 29.86 in1011.2 mb - 0.00 in0.0 mm 0.00 in0.0 mm
04:00 PM 49.1°F9.5°C 41.1°F5.1°C 74% 1.2 mph N1.9 kmh N 3.5 mph5.6 kmh 29.85 in1010.8 mb - 0.00 in0.0 mm 0.00 in0.0 mm
03:50 PM 50.1°F10.1°C 41.0°F5.0°C 71% 2.3 mph WNW3.7 kmh WNW 3.5 mph5.6 kmh 29.86 in1011.2 mb - 0.00 in0.0 mm 0.00 in0.0 mm
03:40 PM 51.4°F10.8°C 40.1°F4.5°C 65% 4.6 mph SW7.4 kmh SW 8.1 mph13.0 kmh 29.86 in1011.2 mb - 0.00 in0.0 mm 0.00 in0.0 mm
03:30 PM 53.6°F12.0°C 38.8°F3.8°C 57% 4.6 mph WNW7.4 kmh WNW 9.2 mph14.8 kmh 29.86 in1011.2 mb - 0.00 in0.0 mm 0.00 in0.0 mm
03:20 PM 55.3°F12.9°C 36.5°F2.5°C 49% 4.6 mph W7.4 kmh W 10.4 mph16.7 kmh 29.85 in1010.8 mb - 0.00 in0.0 mm 0.00 in0.0 mm
03:10 PM 56.5°F13.6°C 34.9°F1.6°C 44% 2.3 mph SW3.7 kmh SW 4.6 mph7.4 kmh 29.84 in1010.5 mb - 0.00 in0.0 mm 0.00 in0.0 mm
03:00 PM 57.7°F14.3°C 36.5°F2.5°C 45% 4.6 mph WSW7.4 kmh WSW 8.1 mph13.0 kmh 29.83 in1010.2 mb - 0.00 in0.0 mm 0.00 in0.0 mm
02:50 PM 57.5°F14.2°C 36.3°F2.4°C 45% 3.5 mph W5.6 kmh W 10.4 mph16.7 kmh 29.83 in1010.2 mb - 0.00 in0.0 mm 0.00 in0.0 mm
02:40 PM 57.6°F14.2°C 37.5°F3.1°C 47% 2.3 mph SW3.7 kmh SW 3.5 mph5.6 kmh 29.82 in1009.8 mb - 0.00 in0.0 mm 0.00 in0.0 mm
02:30 PM 57.6°F14.2°C 39.1°F3.9°C 50% 2.3 mph WSW3.7 kmh WSW 3.5 mph5.6 kmh 29.82 in1009.8 mb - 0.00 in0.0 mm 0.00 in0.0 mm
02:20 PM 57.7°F14.3°C 39.2°F4.0°C 50% 2.3 mph WNW3.7 kmh WNW 5.8 mph9.3 kmh 29.82 in1009.8 mb - 0.00 in0.0 mm 0.00 in0.0 mm
02:10 PM 57.7°F14.3°C 39.7°F4.3°C 51% 2.3 mph S3.7 kmh S 4.6 mph7.4 kmh 29.82 in1009.8 mb - 0.00 in0.0 mm 0.00 in0.0 mm
02:00 PM 57.6°F14.2°C 39.1°F3.9°C 50% 3.5 mph WNW5.6 kmh WNW 4.6 mph7.4 kmh 29.81 in1009.5 mb - 0.00 in0.0 mm 0.00 in0.0 mm
01:50 PM 57.5°F14.2°C 39.0°F3.9°C 50% 2.3 mph WNW3.7 kmh WNW 5.8 mph9.3 kmh 29.82 in1009.8 mb - 0.00 in0.0 mm 0.00 in0.0 mm
01:40 PM 57.7°F14.3°C 38.7°F3.7°C 49% 3.5 mph W5.6 kmh W 5.8 mph9.3 kmh 29.82 in1009.8 mb - 0.00 in0.0 mm 0.00 in0.0 mm
01:30 PM 58.0°F14.4°C 39.5°F4.2°C 50% 2.3 mph WSW3.7 kmh WSW 3.5 mph5.6 kmh 29.82 in1009.8 mb - 0.00 in0.0 mm 0.00 in0.0 mm
01:20 PM 58.4°F14.7°C 38.2°F3.4°C 47% 3.5 mph WSW5.6 kmh WSW 4.6 mph7.4 kmh 29.82 in1009.8 mb - 0.00 in0.0 mm 0.00 in0.0 mm
01:10 PM 59.5°F15.3°C 37.6°F3.1°C 44% 4.6 mph WSW7.4 kmh WSW 8.1 mph13.0 kmh 29.82 in1009.8 mb - 0.00 in0.0 mm 0.00 in0.0 mm
01:00 PM 60.9°F16.1°C 38.2°F3.4°C 43% 4.6 mph W7.4 kmh W 8.1 mph13.0 kmh 29.82 in1009.8 mb - 0.00 in0.0 mm 0.00 in0.0 mm
12:50 PM 62.1°F16.7°C 38.1°F3.4°C 41% 4.6 mph W7.4 kmh W 8.1 mph13.0 kmh 29.82 in1009.8 mb - 0.00 in0.0 mm 0.00 in0.0 mm
12:40 PM 63.7°F17.6°C 35.5°F1.9°C 35% 4.6 mph WSW7.4 kmh WSW 6.9 mph11.1 kmh 29.82 in1009.8 mb - 0.00 in0.0 mm 0.00 in0.0 mm
12:30 PM 64.3°F17.9°C 33.0°F0.6°C 31% 4.6 mph SW7.4 kmh SW 5.8 mph9.3 kmh 29.82 in1009.8 mb - 0.00 in0.0 mm 0.00 in0.0 mm
12:20 PM 64.9°F18.3°C 33.5°F0.8°C 31% 4.6 mph W7.4 kmh W 10.4 mph16.7 kmh 29.82 in1009.8 mb - 0.00 in0.0 mm 0.00 in0.0 mm
12:10 PM 65.6°F18.7°C 34.1°F1.2°C 31% 5.8 mph WSW9.3 kmh WSW 10.4 mph16.7 kmh 29.82 in1009.8 mb - 0.00 in0.0 mm 0.00 in0.0 mm
12:00 PM 65.9°F18.8°C 31.8°F-0.1°C 28% 2.3 mph WSW3.7 kmh WSW 4.6 mph7.4 kmh 29.82 in1009.8 mb - 0.00 in0.0 mm 0.00 in0.0 mm
11:50 AM 65.9°F18.8°C 31.8°F-0.1°C 28% 2.3 mph WSW3.7 kmh WSW 3.5 mph5.6 kmh 29.83 in1010.2 mb - 0.00 in0.0 mm 0.00 in0.0 mm
11:40 AM 65.9°F18.8°C 30.9°F-0.6°C 27% Calm Calm 1.2 mph1.9 kmh 29.83 in1010.2 mb - 0.00 in0.0 mm 0.00 in0.0 mm
11:30 AM 66.1°F18.9°C 31.1°F-0.5°C 27% 1.2 mph WSW1.9 kmh WSW 3.5 mph5.6 kmh 29.84 in1010.5 mb - 0.00 in0.0 mm 0.00 in0.0 mm
11:20 AM 66.4°F19.1°C 31.4°F-0.3°C 27% 3.5 mph SW5.6 kmh SW 4.6 mph7.4 kmh 29.84 in1010.5 mb - 0.00 in0.0 mm 0.00 in0.0 mm
11:10 AM 66.7°F19.3°C 31.6°F-0.2°C 27% 3.5 mph SW5.6 kmh SW 8.1 mph13.0 kmh 29.85 in1010.8 mb - 0.00 in0.0 mm 0.00 in0.0 mm
11:00 AM 66.8°F19.3°C 30.8°F-0.7°C 26% 2.3 mph SW3.7 kmh SW 3.5 mph5.6 kmh 29.85 in1010.8 mb - 0.00 in0.0 mm 0.00 in0.0 mm
10:50 AM 67.4°F19.7°C 31.3°F-0.4°C 26% 1.2 mph SSW1.9 kmh SSW 4.6 mph7.4 kmh 29.86 in1011.2 mb - 0.00 in0.0 mm 0.00 in0.0 mm
10:40 AM 68.1°F20.1°C 30.9°F-0.6°C 25% 2.3 mph SW3.7 kmh SW 3.5 mph5.6 kmh 29.86 in1011.2 mb - 0.00 in0.0 mm 0.00 in0.0 mm
10:30 AM 68.3°F20.2°C 31.1°F-0.5°C 25% 1.2 mph SW1.9 kmh SW 3.5 mph5.6 kmh 29.86 in1011.2 mb - 0.00 in0.0 mm 0.00 in0.0 mm
10:20 AM 67.0°F19.4°C 30.0°F-1.1°C 25% 1.2 mph SSE1.9 kmh SSE 3.5 mph5.6 kmh 29.86 in1011.2 mb - 0.00 in0.0 mm 0.00 in0.0 mm
10:10 AM 65.2°F18.4°C 30.4°F-0.9°C 27% 1.2 mph SE1.9 kmh SE 3.5 mph5.6 kmh 29.86 in1011.2 mb - 0.00 in0.0 mm 0.00 in0.0 mm
10:00 AM 64.1°F17.8°C 29.4°F-1.4°C 27% 1.2 mph S1.9 kmh S 3.5 mph5.6 kmh 29.86 in1011.2 mb - 0.00 in0.0 mm 0.00 in0.0 mm
09:50 AM 63.8°F17.7°C 29.1°F-1.6°C 27% 1.2 mph SSE1.9 kmh SSE 3.5 mph5.6 kmh 29.86 in1011.2 mb - 0.00 in0.0 mm 0.00 in0.0 mm
09:40 AM 63.6°F17.6°C 29.0°F-1.7°C 27% 2.3 mph NE3.7 kmh NE 3.5 mph5.6 kmh 29.86 in1011.2 mb - 0.00 in0.0 mm 0.00 in0.0 mm
09:30 AM 63.5°F17.5°C 28.9°F-1.7°C 27% 2.3 mph SE3.7 kmh SE 8.1 mph13.0 kmh 29.85 in1010.8 mb - 0.00 in0.0 mm 0.00 in0.0 mm
09:20 AM 63.6°F17.6°C 28.9°F-1.7°C 27% 3.5 mph ESE5.6 kmh ESE 5.8 mph9.3 kmh 29.85 in1010.8 mb - 0.00 in0.0 mm 0.00 in0.0 mm
09:10 AM 63.6°F17.6°C 28.1°F-2.2°C 26% 2.3 mph NE3.7 kmh NE 3.5 mph5.6 kmh 29.85 in1010.8 mb - 0.00 in0.0 mm 0.00 in0.0 mm
09:00 AM 63.7°F17.6°C 28.1°F-2.2°C 26% 1.2 mph SE1.9 kmh SE 3.5 mph5.6 kmh 29.85 in1010.8 mb - 0.00 in0.0 mm 0.00 in0.0 mm
08:50 AM 63.8°F17.7°C 28.2°F-2.1°C 26% 1.2 mph SE1.9 kmh SE 3.5 mph5.6 kmh 29.84 in1010.5 mb - 0.00 in0.0 mm 0.00 in0.0 mm
08:40 AM 63.2°F17.3°C 27.7°F-2.4°C 26% 1.2 mph SSE1.9 kmh SSE 4.6 mph7.4 kmh 29.84 in1010.5 mb - 0.00 in0.0 mm 0.00 in0.0 mm
08:30 AM 62.6°F17.0°C 27.2°F-2.7°C 26% 1.2 mph E1.9 kmh E 3.5 mph5.6 kmh 29.84 in1010.5 mb - 0.00 in0.0 mm 0.00 in0.0 mm
08:20 AM 62.2°F16.8°C 26.9°F-2.8°C 26% 1.2 mph SSE1.9 kmh SSE 3.5 mph5.6 kmh 29.84 in1010.5 mb - 0.00 in0.0 mm 0.00 in0.0 mm
08:10 AM 61.6°F16.4°C 27.3°F-2.6°C 27% 3.5 mph E5.6 kmh E 4.6 mph7.4 kmh 29.83 in1010.2 mb - 0.00 in0.0 mm 0.00 in0.0 mm
08:00 AM 60.9°F16.1°C 26.7°F-2.9°C 27% 3.5 mph SE5.6 kmh SE 8.1 mph13.0 kmh 29.83 in1010.2 mb - 0.00 in0.0 mm 0.00 in0.0 mm
07:50 AM 60.5°F15.8°C 26.3°F-3.2°C 27% 2.3 mph N3.7 kmh N 4.6 mph7.4 kmh 29.83 in1010.2 mb - 0.00 in0.0 mm 0.00 in0.0 mm
07:40 AM 60.3°F15.7°C 26.1°F-3.3°C 27% 2.3 mph SE3.7 kmh SE 4.6 mph7.4 kmh 29.82 in1009.8 mb - 0.00 in0.0 mm 0.00 in0.0 mm
07:30 AM 60.0°F15.6°C 25.9°F-3.4°C 27% 2.3 mph E3.7 kmh E 4.6 mph7.4 kmh 29.82 in1009.8 mb - 0.00 in0.0 mm 0.00 in0.0 mm
07:20 AM 59.9°F15.5°C 25.8°F-3.4°C 27% 2.3 mph ESE3.7 kmh ESE 4.6 mph7.4 kmh 29.82 in1009.8 mb - 0.00 in0.0 mm 0.00 in0.0 mm
07:10 AM 59.9°F15.5°C 25.8°F-3.4°C 27% 1.2 mph ESE1.9 kmh ESE 2.3 mph3.7 kmh 29.83 in1010.2 mb - 0.00 in0.0 mm 0.00 in0.0 mm
07:00 AM 59.7°F15.4°C 25.6°F-3.6°C 27% 2.3 mph ESE3.7 kmh ESE 3.5 mph5.6 kmh 29.82 in1009.8 mb - 0.00 in0.0 mm 0.00 in0.0 mm
06:50 AM 59.4°F15.2°C 24.5°F-4.2°C 26% 1.2 mph SE1.9 kmh SE 4.6 mph7.4 kmh 29.83 in1010.2 mb - 0.00 in0.0 mm 0.00 in0.0 mm
06:40 AM 59.3°F15.2°C 24.4°F-4.2°C 26% 1.2 mph S1.9 kmh S 2.3 mph3.7 kmh 29.83 in1010.2 mb - 0.00 in0.0 mm 0.00 in0.0 mm
06:30 AM 59.5°F15.3°C 24.5°F-4.2°C 26% 1.2 mph E1.9 kmh E 2.3 mph3.7 kmh 29.83 in1010.2 mb - 0.00 in0.0 mm 0.00 in0.0 mm
06:20 AM 59.8°F15.4°C 24.8°F-4.0°C 26% 1.2 mph SE1.9 kmh SE 1.2 mph1.9 kmh 29.83 in1010.2 mb - 0.00 in0.0 mm 0.00 in0.0 mm
06:10 AM 59.7°F15.4°C 24.7°F-4.1°C 26% Calm Calm 3.5 mph5.6 kmh 29.83 in1010.2 mb - 0.00 in0.0 mm 0.00 in0.0 mm
06:00 AM 59.5°F15.3°C 23.6°F-4.7°C 25% 2.3 mph E3.7 kmh E 2.3 mph3.7 kmh 29.83 in1010.2 mb - 0.00 in0.0 mm 0.00 in0.0 mm
05:50 AM 58.8°F14.9°C 23.9°F-4.5°C 26% 1.2 mph ENE1.9 kmh ENE 3.5 mph5.6 kmh 29.82 in1009.8 mb - 0.00 in0.0 mm 0.00 in0.0 mm
05:40 AM 57.8°F14.3°C 23.1°F-4.9°C 26% 1.2 mph E1.9 kmh E 2.3 mph3.7 kmh 29.82 in1009.8 mb - 0.00 in0.0 mm 0.00 in0.0 mm
05:30 AM 56.2°F13.4°C 23.5°F-4.7°C 28% 2.3 mph SE3.7 kmh SE 5.8 mph9.3 kmh 29.82 in1009.8 mb - 0.00 in0.0 mm 0.00 in0.0 mm
05:20 AM 54.8°F12.7°C 23.1°F-4.9°C 29% 1.2 mph SE1.9 kmh SE 2.3 mph3.7 kmh 29.82 in1009.8 mb - 0.00 in0.0 mm 0.00 in0.0 mm
05:10 AM 54.2°F12.3°C 23.4°F-4.8°C 30% 1.2 mph SE1.9 kmh SE 3.5 mph5.6 kmh 29.82 in1009.8 mb - 0.00 in0.0 mm 0.00 in0.0 mm
05:00 AM 54.6°F12.6°C 23.7°F-4.6°C 30% 1.2 mph E1.9 kmh E 3.5 mph5.6 kmh 29.82 in1009.8 mb - 0.00 in0.0 mm 0.00 in0.0 mm
04:50 AM 55.1°F12.8°C 23.3°F-4.8°C 29% Calm Calm 1.2 mph1.9 kmh 29.82 in1009.8 mb - 0.00 in0.0 mm 0.00 in0.0 mm
04:40 AM 55.6°F13.1°C 23.0°F-5.0°C 28% Calm Calm 1.2 mph1.9 kmh 29.82 in1009.8 mb - 0.00 in0.0 mm 0.00 in0.0 mm
04:30 AM 56.0°F13.3°C 23.3°F-4.8°C 28% Calm Calm 1.2 mph1.9 kmh 29.82 in1009.8 mb - 0.00 in0.0 mm 0.00 in0.0 mm
04:20 AM 56.3°F13.5°C 23.5°F-4.7°C 28% Calm Calm -- 29.82 in1009.8 mb - 0.00 in0.0 mm 0.00 in0.0 mm
04:10 AM 56.1°F13.4°C 23.4°F-4.8°C 28% Calm Calm 1.2 mph1.9 kmh 29.82 in1009.8 mb - 0.00 in0.0 mm 0.00 in0.0 mm
04:00 AM 55.5°F13.1°C 22.9°F-5.1°C 28% Calm Calm 1.2 mph1.9 kmh 29.82 in1009.8 mb - 0.00 in0.0 mm 0.00 in0.0 mm
03:50 AM 54.6°F12.6°C 22.9°F-5.1°C 29% 1.2 mph SE1.9 kmh SE 2.3 mph3.7 kmh 29.83 in1010.2 mb - 0.00 in0.0 mm 0.00 in0.0 mm
03:40 AM 53.9°F12.2°C 23.1°F-4.9°C 30% 1.2 mph E1.9 kmh E 2.3 mph3.7 kmh 29.83 in1010.2 mb - 0.00 in0.0 mm 0.00 in0.0 mm
03:30 AM 53.7°F12.1°C 23.0°F-5.0°C 30% Calm Calm 1.2 mph1.9 kmh 29.82 in1009.8 mb - 0.00 in0.0 mm 0.00 in0.0 mm
03:20 AM 53.8°F12.1°C 23.1°F-4.9°C 30% Calm Calm 2.3 mph3.7 kmh 29.82 in1009.8 mb - 0.00 in0.0 mm 0.00 in0.0 mm
03:10 AM 53.7°F12.1°C 23.0°F-5.0°C 30% 1.2 mph E1.9 kmh E 2.3 mph3.7 kmh 29.82 in1009.8 mb - 0.00 in0.0 mm 0.00 in0.0 mm
03:00 AM 54.0°F12.2°C 23.2°F-4.9°C 30% 1.2 mph SE1.9 kmh SE 3.5 mph5.6 kmh 29.83 in1010.2 mb - 0.00 in0.0 mm 0.00 in0.0 mm
02:50 AM 54.9°F12.7°C 23.2°F-4.9°C 29% Calm Calm 1.2 mph1.9 kmh 29.83 in1010.2 mb - 0.00 in0.0 mm 0.00 in0.0 mm
02:40 AM 56.3°F13.5°C 22.7°F-5.2°C 27% Calm Calm 1.2 mph1.9 kmh 29.83 in1010.2 mb - 0.00 in0.0 mm 0.00 in0.0 mm
02:30 AM 57.7°F14.3°C 23.0°F-5.0°C 26% Calm Calm -- 29.83 in1010.2 mb - 0.00 in0.0 mm 0.00 in0.0 mm
02:20 AM 58.1°F14.5°C 23.4°F-4.8°C 26% Calm Calm 1.2 mph1.9 kmh 29.84 in1010.5 mb - 0.00 in0.0 mm 0.00 in0.0 mm
02:10 AM 58.7°F14.8°C 23.9°F-4.5°C 26% Calm Calm -- 29.84 in1010.5 mb - 0.00 in0.0 mm 0.00 in0.0 mm
02:00 AM 59.0°F15.0°C 23.2°F-4.9°C 25% 1.2 mph NE1.9 kmh NE 1.2 mph1.9 kmh 29.84 in1010.5 mb - 0.00 in0.0 mm 0.00 in0.0 mm
01:50 AM 58.9°F14.9°C 23.1°F-4.9°C 25% Calm Calm 1.2 mph1.9 kmh 29.84 in1010.5 mb - 0.00 in0.0 mm 0.00 in0.0 mm
01:40 AM 58.5°F14.7°C 22.7°F-5.2°C 25% Calm Calm -- 29.84 in1010.5 mb - 0.00 in0.0 mm 0.00 in0.0 mm
01:30 AM 57.3°F14.1°C 22.6°F-5.2°C 26% Calm Calm 1.2 mph1.9 kmh 29.84 in1010.5 mb - 0.00 in0.0 mm 0.00 in0.0 mm
01:20 AM 55.1°F12.8°C 22.5°F-5.3°C 28% Calm Calm 2.3 mph3.7 kmh 29.85 in1010.8 mb - 0.00 in0.0 mm 0.00 in0.0 mm
01:10 AM 53.2°F11.8°C 23.3°F-4.8°C 31% 1.2 mph E1.9 kmh E 1.2 mph1.9 kmh 29.85 in1010.8 mb - 0.00 in0.0 mm 0.00 in0.0 mm
01:00 AM 53.1°F11.7°C 24.0°F-4.4°C 32% 1.2 mph E1.9 kmh E 1.2 mph1.9 kmh 29.85 in1010.8 mb - 0.00 in0.0 mm 0.00 in0.0 mm
12:50 AM 53.7°F12.1°C 24.5°F-4.2°C 32% Calm Calm 1.2 mph1.9 kmh 29.85 in1010.8 mb - 0.00 in0.0 mm 0.00 in0.0 mm
12:40 AM 53.9°F12.2°C 23.9°F-4.5°C 31% Calm Calm 1.2 mph1.9 kmh 29.86 in1011.2 mb - 0.00 in0.0 mm 0.00 in0.0 mm
12:30 AM 54.0°F12.2°C 24.0°F-4.4°C 31% Calm Calm 1.2 mph1.9 kmh 29.85 in1010.8 mb - 0.00 in0.0 mm 0.00 in0.0 mm
12:20 AM 54.4°F12.4°C 23.6°F-4.7°C 30% Calm Calm 2.3 mph3.7 kmh 29.86 in1011.2 mb - 0.00 in0.0 mm 0.00 in0.0 mm
12:10 AM 54.8°F12.7°C 23.1°F-4.9°C 29% Calm Calm 1.2 mph1.9 kmh 29.86 in1011.2 mb - 0.00 in0.0 mm 0.00 in0.0 mm
12:00 AM 55.3°F12.9°C 23.5°F-4.7°C 29% Calm Calm 1.2 mph1.9 kmh 29.86 in1011.2 mb - 0.00 in0.0 mm 0.00 in0.0 mm